sensor_id;sensor_type;location;lat;lon;timestamp;temperature;humidity
22360;DHT22;11347;52.030;4.690;2022-07-25T00:00:25;26.50;49.20
22360;DHT22;11347;52.030;4.690;2022-07-25T00:02:51;26.50;49.30
22360;DHT22;11347;52.030;4.690;2022-07-25T00:05:17;26.50;49.30
22360;DHT22;11347;52.030;4.690;2022-07-25T00:07:42;26.40;49.20
22360;DHT22;11347;52.030;4.690;2022-07-25T00:10:08;26.40;49.20
22360;DHT22;11347;52.030;4.690;2022-07-25T00:12:34;26.40;49.20
22360;DHT22;11347;52.030;4.690;2022-07-25T00:14:59;26.40;49.20
22360;DHT22;11347;52.030;4.690;2022-07-25T00:17:25;26.40;49.20
22360;DHT22;11347;52.030;4.690;2022-07-25T00:19:51;26.40;49.30
22360;DHT22;11347;52.030;4.690;2022-07-25T00:22:16;26.40;49.50
22360;DHT22;11347;52.030;4.690;2022-07-25T00:24:42;26.40;49.50
22360;DHT22;11347;52.030;4.690;2022-07-25T00:27:07;26.40;49.40
22360;DHT22;11347;52.030;4.690;2022-07-25T00:29:33;26.40;49.40
22360;DHT22;11347;52.030;4.690;2022-07-25T00:31:58;26.40;49.30
22360;DHT22;11347;52.030;4.690;2022-07-25T00:34:24;26.40;49.50
22360;DHT22;11347;52.030;4.690;2022-07-25T00:36:50;26.30;49.40
22360;DHT22;11347;52.030;4.690;2022-07-25T00:39:15;26.30;49.50
22360;DHT22;11347;52.030;4.690;2022-07-25T00:41:41;26.30;49.40
22360;DHT22;11347;52.030;4.690;2022-07-25T00:44:08;26.30;49.50
22360;DHT22;11347;52.030;4.690;2022-07-25T00:46:37;26.30;49.60
22360;DHT22;11347;52.030;4.690;2022-07-25T00:49:02;26.30;49.80
22360;DHT22;11347;52.030;4.690;2022-07-25T00:51:28;26.30;50.10
22360;DHT22;11347;52.030;4.690;2022-07-25T00:53:55;26.30;50.10
22360;DHT22;11347;52.030;4.690;2022-07-25T00:56:21;26.20;50.10
22360;DHT22;11347;52.030;4.690;2022-07-25T00:58:47;26.20;50.90
22360;DHT22;11347;52.030;4.690;2022-07-25T01:01:13;26.20;50.30
22360;DHT22;11347;52.030;4.690;2022-07-25T01:03:38;26.20;50.40
22360;DHT22;11347;52.030;4.690;2022-07-25T01:06:04;26.20;50.50
22360;DHT22;11347;52.030;4.690;2022-07-25T01:08:30;26.20;50.70
22360;DHT22;11347;52.030;4.690;2022-07-25T01:10:56;26.20;50.50
22360;DHT22;11347;52.030;4.690;2022-07-25T01:13:22;26.10;50.50
22360;DHT22;11347;52.030;4.690;2022-07-25T01:15:47;26.10;50.50
22360;DHT22;11347;52.030;4.690;2022-07-25T01:18:13;26.10;50.60
22360;DHT22;11347;52.030;4.690;2022-07-25T01:20:38;26.10;50.80
22360;DHT22;11347;52.030;4.690;2022-07-25T01:23:04;26.10;50.90
22360;DHT22;11347;52.030;4.690;2022-07-25T01:25:29;26.10;50.90
22360;DHT22;11347;52.030;4.690;2022-07-25T01:27:55;26.10;51.00
22360;DHT22;11347;52.030;4.690;2022-07-25T01:30:23;26.10;51.10
22360;DHT22;11347;52.030;4.690;2022-07-25T01:32:49;26.00;51.00
22360;DHT22;11347;52.030;4.690;2022-07-25T01:35:15;26.00;51.00
22360;DHT22;11347;52.030;4.690;2022-07-25T01:37:41;26.00;51.00
22360;DHT22;11347;52.030;4.690;2022-07-25T01:40:07;26.00;51.10
22360;DHT22;11347;52.030;4.690;2022-07-25T01:42:32;26.00;51.20
22360;DHT22;11347;52.030;4.690;2022-07-25T01:44:59;26.00;51.30
22360;DHT22;11347;52.030;4.690;2022-07-25T01:47:24;26.00;51.10
22360;DHT22;11347;52.030;4.690;2022-07-25T01:49:50;26.00;51.20
22360;DHT22;11347;52.030;4.690;2022-07-25T01:52:16;26.00;51.30
22360;DHT22;11347;52.030;4.690;2022-07-25T01:54:41;25.90;51.40
22360;DHT22;11347;52.030;4.690;2022-07-25T01:57:07;25.90;51.50
22360;DHT22;11347;52.030;4.690;2022-07-25T01:59:38;25.90;51.70
22360;DHT22;11347;52.030;4.690;2022-07-25T02:02:04;25.90;51.80
22360;DHT22;11347;52.030;4.690;2022-07-25T02:04:30;25.90;51.90
22360;DHT22;11347;52.030;4.690;2022-07-25T02:06:56;26.00;51.90
22360;DHT22;11347;52.030;4.690;2022-07-25T02:09:22;25.90;51.80
22360;DHT22;11347;52.030;4.690;2022-07-25T02:11:47;25.90;51.80
22360;DHT22;11347;52.030;4.690;2022-07-25T02:14:13;25.90;51.80
22360;DHT22;11347;52.030;4.690;2022-07-25T02:16:39;25.90;51.90
22360;DHT22;11347;52.030;4.690;2022-07-25T02:19:04;25.90;52.00
22360;DHT22;11347;52.030;4.690;2022-07-25T02:21:30;25.90;52.10
22360;DHT22;11347;52.030;4.690;2022-07-25T02:23:55;25.90;52.20
22360;DHT22;11347;52.030;4.690;2022-07-25T02:26:21;25.90;52.80
22360;DHT22;11347;52.030;4.690;2022-07-25T02:28:48;25.90;52.10
22360;DHT22;11347;52.030;4.690;2022-07-25T02:31:14;25.90;52.20
22360;DHT22;11347;52.030;4.690;2022-07-25T02:33:40;25.90;52.20
22360;DHT22;11347;52.030;4.690;2022-07-25T02:36:06;25.90;52.30
22360;DHT22;11347;52.030;4.690;2022-07-25T02:38:32;25.90;52.40
22360;DHT22;11347;52.030;4.690;2022-07-25T02:40:57;25.80;52.30
22360;DHT22;11347;52.030;4.690;2022-07-25T02:43:23;25.80;52.30
22360;DHT22;11347;52.030;4.690;2022-07-25T02:45:49;25.90;52.40
22360;DHT22;11347;52.030;4.690;2022-07-25T02:48:15;25.80;52.30
22360;DHT22;11347;52.030;4.690;2022-07-25T02:50:40;25.80;52.30
22360;DHT22;11347;52.030;4.690;2022-07-25T02:53:06;25.80;52.40
22360;DHT22;11347;52.030;4.690;2022-07-25T02:55:32;25.80;52.50
22360;DHT22;11347;52.030;4.690;2022-07-25T02:57:57;25.80;52.60
22360;DHT22;11347;52.030;4.690;2022-07-25T03:00:23;25.80;52.60
22360;DHT22;11347;52.030;4.690;2022-07-25T03:02:49;25.80;52.70
22360;DHT22;11347;52.030;4.690;2022-07-25T03:05:15;25.80;52.80
22360;DHT22;11347;52.030;4.690;2022-07-25T03:07:42;25.80;52.90
22360;DHT22;11347;52.030;4.690;2022-07-25T03:10:09;25.70;53.20
22360;DHT22;11347;52.030;4.690;2022-07-25T03:12:35;25.70;53.40
22360;DHT22;11347;52.030;4.690;2022-07-25T03:15:02;25.70;53.50
22360;DHT22;11347;52.030;4.690;2022-07-25T03:17:28;25.70;53.50
22360;DHT22;11347;52.030;4.690;2022-07-25T03:19:54;25.70;53.50
22360;DHT22;11347;52.030;4.690;2022-07-25T03:22:20;25.70;53.50
22360;DHT22;11347;52.030;4.690;2022-07-25T03:24:46;25.70;53.60
22360;DHT22;11347;52.030;4.690;2022-07-25T03:27:12;25.70;53.60
22360;DHT22;11347;52.030;4.690;2022-07-25T03:29:38;25.70;53.60
22360;DHT22;11347;52.030;4.690;2022-07-25T03:32:04;25.70;53.60
22360;DHT22;11347;52.030;4.690;2022-07-25T03:34:30;25.70;53.60
22360;DHT22;11347;52.030;4.690;2022-07-25T03:36:55;25.70;53.60
22360;DHT22;11347;52.030;4.690;2022-07-25T03:39:21;25.70;53.80
22360;DHT22;11347;52.030;4.690;2022-07-25T03:41:49;25.70;53.90
22360;DHT22;11347;52.030;4.690;2022-07-25T03:44:14;25.70;54.20
22360;DHT22;11347;52.030;4.690;2022-07-25T03:46:40;25.70;54.20
22360;DHT22;11347;52.030;4.690;2022-07-25T03:49:05;25.70;54.20
22360;DHT22;11347;52.030;4.690;2022-07-25T03:51:31;25.70;54.20
22360;DHT22;11347;52.030;4.690;2022-07-25T03:53:56;25.60;54.20
22360;DHT22;11347;52.030;4.690;2022-07-25T03:56:28;25.70;54.20
22360;DHT22;11347;52.030;4.690;2022-07-25T03:58:54;25.60;54.20
22360;DHT22;11347;52.030;4.690;2022-07-25T04:01:20;25.60;54.20
22360;DHT22;11347;52.030;4.690;2022-07-25T04:03:45;25.60;54.20
22360;DHT22;11347;52.030;4.690;2022-07-25T04:06:11;25.60;54.20
22360;DHT22;11347;52.030;4.690;2022-07-25T04:08:37;25.60;54.20
22360;DHT22;11347;52.030;4.690;2022-07-25T04:11:02;25.60;54.20
22360;DHT22;11347;52.030;4.690;2022-07-25T04:13:28;25.60;54.20
22360;DHT22;11347;52.030;4.690;2022-07-25T04:15:54;25.60;54.20
22360;DHT22;11347;52.030;4.690;2022-07-25T04:18:19;25.60;54.20
22360;DHT22;11347;52.030;4.690;2022-07-25T04:20:45;25.60;54.20
22360;DHT22;11347;52.030;4.690;2022-07-25T04:23:10;25.60;54.20
22360;DHT22;11347;52.030;4.690;2022-07-25T04:25:36;25.60;54.20
22360;DHT22;11347;52.030;4.690;2022-07-25T04:28:02;25.60;54.20
22360;DHT22;11347;52.030;4.690;2022-07-25T04:30:27;25.60;54.20
22360;DHT22;11347;52.030;4.690;2022-07-25T04:32:53;25.60;54.20
22360;DHT22;11347;52.030;4.690;2022-07-25T04:35:19;25.60;54.20
22360;DHT22;11347;52.030;4.690;2022-07-25T04:37:44;25.60;54.20
22360;DHT22;11347;52.030;4.690;2022-07-25T04:40:10;25.60;54.20
22360;DHT22;11347;52.030;4.690;2022-07-25T04:42:36;25.60;54.20
22360;DHT22;11347;52.030;4.690;2022-07-25T04:45:01;25.60;54.20
22360;DHT22;11347;52.030;4.690;2022-07-25T04:47:27;25.60;54.20
22360;DHT22;11347;52.030;4.690;2022-07-25T04:49:54;25.60;54.20
22360;DHT22;11347;52.030;4.690;2022-07-25T04:52:20;25.60;54.20
22360;DHT22;11347;52.030;4.690;2022-07-25T04:54:45;25.60;54.20
22360;DHT22;11347;52.030;4.690;2022-07-25T04:57:11;25.60;53.50
22360;DHT22;11347;52.030;4.690;2022-07-25T04:59:36;25.60;53.20
22360;DHT22;11347;52.030;4.690;2022-07-25T05:02:02;25.60;53.00
22360;DHT22;11347;52.030;4.690;2022-07-25T05:04:27;25.60;53.30
22360;DHT22;11347;52.030;4.690;2022-07-25T05:06:53;25.60;52.20
22360;DHT22;11347;52.030;4.690;2022-07-25T05:09:19;25.60;52.00
22360;DHT22;11347;52.030;4.690;2022-07-25T05:11:44;25.60;51.80
22360;DHT22;11347;52.030;4.690;2022-07-25T05:14:10;25.60;51.70
22360;DHT22;11347;52.030;4.690;2022-07-25T05:16:35;25.60;51.50
22360;DHT22;11347;52.030;4.690;2022-07-25T05:19:01;25.60;51.50
22360;DHT22;11347;52.030;4.690;2022-07-25T05:21:26;25.60;51.40
22360;DHT22;11347;52.030;4.690;2022-07-25T05:23:52;25.60;51.20
22360;DHT22;11347;52.030;4.690;2022-07-25T05:26:18;25.60;51.20
22360;DHT22;11347;52.030;4.690;2022-07-25T05:28:43;25.60;51.00
22360;DHT22;11347;52.030;4.690;2022-07-25T05:31:09;25.60;51.00
22360;DHT22;11347;52.030;4.690;2022-07-25T05:33:34;25.60;51.10
22360;DHT22;11347;52.030;4.690;2022-07-25T05:36:00;25.60;51.20
22360;DHT22;11347;52.030;4.690;2022-07-25T05:38:27;25.60;51.10
22360;DHT22;11347;52.030;4.690;2022-07-25T05:40:53;25.60;51.00
22360;DHT22;11347;52.030;4.690;2022-07-25T05:43:19;25.60;50.90
22360;DHT22;11347;52.030;4.690;2022-07-25T05:45:44;25.60;50.70
22360;DHT22;11347;52.030;4.690;2022-07-25T05:48:12;25.60;50.60
22360;DHT22;11347;52.030;4.690;2022-07-25T05:50:37;25.60;50.50
22360;DHT22;11347;52.030;4.690;2022-07-25T05:53:03;25.70;50.40
22360;DHT22;11347;52.030;4.690;2022-07-25T05:55:29;25.60;50.10
22360;DHT22;11347;52.030;4.690;2022-07-25T05:57:54;25.60;50.00
22360;DHT22;11347;52.030;4.690;2022-07-25T06:00:20;25.60;50.00
22360;DHT22;11347;52.030;4.690;2022-07-25T06:02:45;25.60;49.90
22360;DHT22;11347;52.030;4.690;2022-07-25T06:05:11;25.70;49.70
22360;DHT22;11347;52.030;4.690;2022-07-25T06:07:36;25.70;49.70
22360;DHT22;11347;52.030;4.690;2022-07-25T06:10:03;25.70;49.70
22360;DHT22;11347;52.030;4.690;2022-07-25T06:12:28;25.70;49.70
22360;DHT22;11347;52.030;4.690;2022-07-25T06:14:54;25.70;49.70
22360;DHT22;11347;52.030;4.690;2022-07-25T06:17:19;25.70;49.90
22360;DHT22;11347;52.030;4.690;2022-07-25T06:19:45;25.70;49.90
22360;DHT22;11347;52.030;4.690;2022-07-25T06:22:11;25.70;50.00
22360;DHT22;11347;52.030;4.690;2022-07-25T06:24:38;25.70;50.00
22360;DHT22;11347;52.030;4.690;2022-07-25T06:27:03;25.70;50.20
22360;DHT22;11347;52.030;4.690;2022-07-25T06:29:29;25.70;50.30
22360;DHT22;11347;52.030;4.690;2022-07-25T06:31:54;25.70;50.40
22360;DHT22;11347;52.030;4.690;2022-07-25T06:34:20;25.70;50.50
22360;DHT22;11347;52.030;4.690;2022-07-25T06:36:45;25.70;50.80
22360;DHT22;11347;52.030;4.690;2022-07-25T06:39:11;25.70;50.80
22360;DHT22;11347;52.030;4.690;2022-07-25T06:41:36;25.70;50.90
22360;DHT22;11347;52.030;4.690;2022-07-25T06:44:02;25.70;51.00
22360;DHT22;11347;52.030;4.690;2022-07-25T06:46:28;25.70;51.10
22360;DHT22;11347;52.030;4.690;2022-07-25T06:48:56;25.70;51.20
22360;DHT22;11347;52.030;4.690;2022-07-25T06:51:22;25.70;51.20
22360;DHT22;11347;52.030;4.690;2022-07-25T06:53:48;25.70;51.40
22360;DHT22;11347;52.030;4.690;2022-07-25T06:56:14;25.70;51.50
22360;DHT22;11347;52.030;4.690;2022-07-25T06:58:40;25.70;51.80
22360;DHT22;11347;52.030;4.690;2022-07-25T07:01:05;25.70;51.50
22360;DHT22;11347;52.030;4.690;2022-07-25T07:03:31;25.70;51.40
22360;DHT22;11347;52.030;4.690;2022-07-25T07:06:04;25.70;51.50
22360;DHT22;11347;52.030;4.690;2022-07-25T07:08:30;25.70;51.50
22360;DHT22;11347;52.030;4.690;2022-07-25T07:10:56;25.70;51.60
22360;DHT22;11347;52.030;4.690;2022-07-25T07:13:21;25.70;51.80
22360;DHT22;11347;52.030;4.690;2022-07-25T07:15:49;25.70;51.80
22360;DHT22;11347;52.030;4.690;2022-07-25T07:18:16;25.70;51.80
22360;DHT22;11347;52.030;4.690;2022-07-25T07:20:42;25.70;52.00
22360;DHT22;11347;52.030;4.690;2022-07-25T07:23:08;25.70;52.10
22360;DHT22;11347;52.030;4.690;2022-07-25T07:25:33;25.70;52.30
22360;DHT22;11347;52.030;4.690;2022-07-25T07:27:59;25.80;52.50
22360;DHT22;11347;52.030;4.690;2022-07-25T07:30:24;25.80;52.60
22360;DHT22;11347;52.030;4.690;2022-07-25T07:32:50;25.80;52.70
22360;DHT22;11347;52.030;4.690;2022-07-25T07:35:16;25.80;52.70
22360;DHT22;11347;52.030;4.690;2022-07-25T07:37:44;25.80;52.60
22360;DHT22;11347;52.030;4.690;2022-07-25T07:40:12;25.80;52.90
22360;DHT22;11347;52.030;4.690;2022-07-25T07:42:43;25.80;53.30
22360;DHT22;11347;52.030;4.690;2022-07-25T07:45:10;25.80;53.60
22360;DHT22;11347;52.030;4.690;2022-07-25T07:47:36;25.80;53.80
22360;DHT22;11347;52.030;4.690;2022-07-25T07:50:02;25.80;54.40
22360;DHT22;11347;52.030;4.690;2022-07-25T07:52:27;25.80;54.30
22360;DHT22;11347;52.030;4.690;2022-07-25T07:54:53;25.80;54.40
22360;DHT22;11347;52.030;4.690;2022-07-25T07:57:37;25.80;54.30
22360;DHT22;11347;52.030;4.690;2022-07-25T08:00:03;25.80;54.30
22360;DHT22;11347;52.030;4.690;2022-07-25T08:02:29;25.80;54.30
22360;DHT22;11347;52.030;4.690;2022-07-25T08:04:55;25.80;54.20
22360;DHT22;11347;52.030;4.690;2022-07-25T08:07:20;25.80;54.30
22360;DHT22;11347;52.030;4.690;2022-07-25T08:09:46;25.80;54.30
22360;DHT22;11347;52.030;4.690;2022-07-25T08:12:11;25.80;54.30
22360;DHT22;11347;52.030;4.690;2022-07-25T08:14:37;25.80;54.30
22360;DHT22;11347;52.030;4.690;2022-07-25T08:17:02;25.90;54.30
22360;DHT22;11347;52.030;4.690;2022-07-25T08:19:28;25.90;54.20
22360;DHT22;11347;52.030;4.690;2022-07-25T08:21:53;25.90;54.00
22360;DHT22;11347;52.030;4.690;2022-07-25T08:24:19;25.90;53.90
22360;DHT22;11347;52.030;4.690;2022-07-25T08:26:44;25.90;53.70
22360;DHT22;11347;52.030;4.690;2022-07-25T08:29:10;25.90;53.30
22360;DHT22;11347;52.030;4.690;2022-07-25T08:31:36;25.90;52.70
22360;DHT22;11347;52.030;4.690;2022-07-25T08:34:01;25.90;52.50
22360;DHT22;11347;52.030;4.690;2022-07-25T08:36:27;25.90;52.70
22360;DHT22;11347;52.030;4.690;2022-07-25T08:38:53;25.90;52.40
22360;DHT22;11347;52.030;4.690;2022-07-25T08:41:19;26.00;52.40
22360;DHT22;11347;52.030;4.690;2022-07-25T08:43:46;26.00;52.40
22360;DHT22;11347;52.030;4.690;2022-07-25T08:46:13;25.90;52.20
22360;DHT22;11347;52.030;4.690;2022-07-25T08:48:40;26.00;52.10
22360;DHT22;11347;52.030;4.690;2022-07-25T08:51:07;26.00;51.90
22360;DHT22;11347;52.030;4.690;2022-07-25T08:53:32;26.00;51.60
22360;DHT22;11347;52.030;4.690;2022-07-25T08:56:00;26.00;51.50
22360;DHT22;11347;52.030;4.690;2022-07-25T08:58:25;26.00;51.20
22360;DHT22;11347;52.030;4.690;2022-07-25T09:00:51;26.00;51.10
22360;DHT22;11347;52.030;4.690;2022-07-25T09:03:17;26.00;51.00
22360;DHT22;11347;52.030;4.690;2022-07-25T09:05:42;26.10;50.40
22360;DHT22;11347;52.030;4.690;2022-07-25T09:08:13;26.10;49.90
22360;DHT22;11347;52.030;4.690;2022-07-25T09:10:43;26.10;49.30
22360;DHT22;11347;52.030;4.690;2022-07-25T09:13:11;26.10;49.00
22360;DHT22;11347;52.030;4.690;2022-07-25T09:15:53;26.10;48.60
22360;DHT22;11347;52.030;4.690;2022-07-25T09:18:25;26.10;48.20
22360;DHT22;11347;52.030;4.690;2022-07-25T09:20:57;26.10;48.20
22360;DHT22;11347;52.030;4.690;2022-07-25T09:23:33;26.10;48.50
22360;DHT22;11347;52.030;4.690;2022-07-25T09:26:04;26.10;49.00
22360;DHT22;11347;52.030;4.690;2022-07-25T09:28:30;26.20;49.00
22360;DHT22;11347;52.030;4.690;2022-07-25T09:30:58;26.20;48.70
22360;DHT22;11347;52.030;4.690;2022-07-25T09:33:24;26.20;48.50
22360;DHT22;11347;52.030;4.690;2022-07-25T09:35:51;26.20;48.20
22360;DHT22;11347;52.030;4.690;2022-07-25T09:38:18;26.20;48.00
22360;DHT22;11347;52.030;4.690;2022-07-25T09:40:59;26.20;47.90
22360;DHT22;11347;52.030;4.690;2022-07-25T09:43:41;26.20;47.70
22360;DHT22;11347;52.030;4.690;2022-07-25T09:46:09;26.20;47.80
22360;DHT22;11347;52.030;4.690;2022-07-25T09:48:36;26.20;47.80
22360;DHT22;11347;52.030;4.690;2022-07-25T09:51:02;26.20;47.80
22360;DHT22;11347;52.030;4.690;2022-07-25T09:53:28;26.20;47.80
22360;DHT22;11347;52.030;4.690;2022-07-25T09:55:54;26.20;47.90
22360;DHT22;11347;52.030;4.690;2022-07-25T09:58:22;26.20;48.10
22360;DHT22;11347;52.030;4.690;2022-07-25T10:00:48;26.20;48.20
22360;DHT22;11347;52.030;4.690;2022-07-25T10:05:58;26.20;48.10
22360;DHT22;11347;52.030;4.690;2022-07-25T10:08:26;26.20;48.00
22360;DHT22;11347;52.030;4.690;2022-07-25T10:10:52;26.20;48.10
22360;DHT22;11347;52.030;4.690;2022-07-25T10:13:29;26.20;48.10
22360;DHT22;11347;52.030;4.690;2022-07-25T10:15:55;26.20;47.90
22360;DHT22;11347;52.030;4.690;2022-07-25T10:18:23;26.20;47.60
22360;DHT22;11347;52.030;4.690;2022-07-25T10:20:54;26.20;47.30
22360;DHT22;11347;52.030;4.690;2022-07-25T10:23:25;26.30;47.20
22360;DHT22;11347;52.030;4.690;2022-07-25T10:26:14;26.30;47.20
22360;DHT22;11347;52.030;4.690;2022-07-25T10:28:45;26.30;47.20
22360;DHT22;11347;52.030;4.690;2022-07-25T10:31:18;26.30;47.00
22360;DHT22;11347;52.030;4.690;2022-07-25T10:34:04;26.30;47.10
22360;DHT22;11347;52.030;4.690;2022-07-25T10:36:50;26.20;47.10
22360;DHT22;11347;52.030;4.690;2022-07-25T10:39:19;26.30;47.10
22360;DHT22;11347;52.030;4.690;2022-07-25T10:41:54;26.30;47.20
22360;DHT22;11347;52.030;4.690;2022-07-25T10:44:20;26.30;47.80
22360;DHT22;11347;52.030;4.690;2022-07-25T10:46:46;26.20;47.00
22360;DHT22;11347;52.030;4.690;2022-07-25T10:49:18;26.30;47.20
22360;DHT22;11347;52.030;4.690;2022-07-25T10:51:55;26.30;47.30
22360;DHT22;11347;52.030;4.690;2022-07-25T10:54:21;26.20;47.20
22360;DHT22;11347;52.030;4.690;2022-07-25T10:56:58;26.20;47.10
22360;DHT22;11347;52.030;4.690;2022-07-25T10:59:34;26.20;47.20
22360;DHT22;11347;52.030;4.690;2022-07-25T11:02:00;26.30;47.20
22360;DHT22;11347;52.030;4.690;2022-07-25T11:04:27;26.30;47.20
22360;DHT22;11347;52.030;4.690;2022-07-25T11:06:53;26.30;47.10
22360;DHT22;11347;52.030;4.690;2022-07-25T11:09:23;26.30;47.20
22360;DHT22;11347;52.030;4.690;2022-07-25T11:11:52;26.30;47.20
22360;DHT22;11347;52.030;4.690;2022-07-25T11:14:23;26.30;47.20
22360;DHT22;11347;52.030;4.690;2022-07-25T11:16:53;26.30;47.90
22360;DHT22;11347;52.030;4.690;2022-07-25T11:19:27;26.30;47.80
22360;DHT22;11347;52.030;4.690;2022-07-25T11:21:55;26.30;47.00
22360;DHT22;11347;52.030;4.690;2022-07-25T11:24:32;26.30;46.90
22360;DHT22;11347;52.030;4.690;2022-07-25T11:26:58;26.30;46.70
22360;DHT22;11347;52.030;4.690;2022-07-25T11:29:24;26.30;46.60
22360;DHT22;11347;52.030;4.690;2022-07-25T11:31:58;26.30;46.50
22360;DHT22;11347;52.030;4.690;2022-07-25T11:34:28;26.40;46.60
22360;DHT22;11347;52.030;4.690;2022-07-25T11:36:55;26.40;46.60
22360;DHT22;11347;52.030;4.690;2022-07-25T11:39:29;26.40;46.60
22360;DHT22;11347;52.030;4.690;2022-07-25T11:41:59;26.40;46.80
22360;DHT22;11347;52.030;4.690;2022-07-25T11:44:40;26.40;46.70
22360;DHT22;11347;52.030;4.690;2022-07-25T11:49:52;26.40;46.50
22360;DHT22;11347;52.030;4.690;2022-07-25T11:57:33;26.50;44.90
22360;DHT22;11347;52.030;4.690;2022-07-25T12:00:00;26.40;43.50
22360;DHT22;11347;52.030;4.690;2022-07-25T12:02:32;26.50;43.60
22360;DHT22;11347;52.030;4.690;2022-07-25T12:05:06;26.50;43.60
22360;DHT22;11347;52.030;4.690;2022-07-25T12:12:46;26.50;42.10
22360;DHT22;11347;52.030;4.690;2022-07-25T12:15:18;26.40;41.60
22360;DHT22;11347;52.030;4.690;2022-07-25T12:17:45;26.50;41.80
22360;DHT22;11347;52.030;4.690;2022-07-25T12:20:31;26.40;41.50
22360;DHT22;11347;52.030;4.690;2022-07-25T12:23:03;26.50;41.20
22360;DHT22;11347;52.030;4.690;2022-07-25T12:25:30;26.40;40.80
22360;DHT22;11347;52.030;4.690;2022-07-25T12:27:56;26.40;40.80
22360;DHT22;11347;52.030;4.690;2022-07-25T12:30:23;26.40;40.30
22360;DHT22;11347;52.030;4.690;2022-07-25T12:32:49;26.40;39.90
22360;DHT22;11347;52.030;4.690;2022-07-25T12:35:14;26.40;40.10
22360;DHT22;11347;52.030;4.690;2022-07-25T12:37:41;26.40;40.30
22360;DHT22;11347;52.030;4.690;2022-07-25T12:40:07;26.40;40.20
22360;DHT22;11347;52.030;4.690;2022-07-25T12:42:33;26.40;40.00
22360;DHT22;11347;52.030;4.690;2022-07-25T12:44:59;26.40;39.60
22360;DHT22;11347;52.030;4.690;2022-07-25T12:47:26;26.40;39.70
22360;DHT22;11347;52.030;4.690;2022-07-25T12:49:52;26.40;40.10
22360;DHT22;11347;52.030;4.690;2022-07-25T12:52:17;26.40;40.50
22360;DHT22;11347;52.030;4.690;2022-07-25T12:54:43;26.40;40.90
22360;DHT22;11347;52.030;4.690;2022-07-25T12:57:10;26.40;41.10
22360;DHT22;11347;52.030;4.690;2022-07-25T12:59:36;26.40;41.10
22360;DHT22;11347;52.030;4.690;2022-07-25T13:02:02;26.40;41.10
22360;DHT22;11347;52.030;4.690;2022-07-25T13:04:28;26.50;41.10
22360;DHT22;11347;52.030;4.690;2022-07-25T13:06:54;26.50;41.20
22360;DHT22;11347;52.030;4.690;2022-07-25T13:09:20;26.50;41.20
22360;DHT22;11347;52.030;4.690;2022-07-25T13:11:45;26.50;41.30
22360;DHT22;11347;52.030;4.690;2022-07-25T13:14:11;26.50;41.50
22360;DHT22;11347;52.030;4.690;2022-07-25T13:16:37;26.50;41.50
22360;DHT22;11347;52.030;4.690;2022-07-25T13:19:04;26.50;41.70
22360;DHT22;11347;52.030;4.690;2022-07-25T13:21:29;26.50;41.60
22360;DHT22;11347;52.030;4.690;2022-07-25T13:23:56;26.50;41.70
22360;DHT22;11347;52.030;4.690;2022-07-25T13:26:22;26.50;41.80
22360;DHT22;11347;52.030;4.690;2022-07-25T13:28:47;26.50;41.90
22360;DHT22;11347;52.030;4.690;2022-07-25T13:31:13;26.50;41.90
22360;DHT22;11347;52.030;4.690;2022-07-25T13:33:38;26.60;41.90
22360;DHT22;11347;52.030;4.690;2022-07-25T13:36:05;26.60;42.10
22360;DHT22;11347;52.030;4.690;2022-07-25T13:38:30;26.60;42.80
22360;DHT22;11347;52.030;4.690;2022-07-25T13:40:59;26.60;42.10
22360;DHT22;11347;52.030;4.690;2022-07-25T13:43:26;26.50;42.10
22360;DHT22;11347;52.030;4.690;2022-07-25T13:45:52;26.60;42.00
22360;DHT22;11347;52.030;4.690;2022-07-25T13:48:18;26.60;41.80
22360;DHT22;11347;52.030;4.690;2022-07-25T13:50:43;26.60;42.10
22360;DHT22;11347;52.030;4.690;2022-07-25T13:53:09;26.60;41.70
22360;DHT22;11347;52.030;4.690;2022-07-25T13:55:35;26.60;41.10
22360;DHT22;11347;52.030;4.690;2022-07-25T13:58:00;26.60;41.10
22360;DHT22;11347;52.030;4.690;2022-07-25T14:00:26;26.60;41.20
22360;DHT22;11347;52.030;4.690;2022-07-25T14:02:52;26.60;41.30
22360;DHT22;11347;52.030;4.690;2022-07-25T14:05:17;26.60;41.60
22360;DHT22;11347;52.030;4.690;2022-07-25T14:07:43;26.60;41.60
22360;DHT22;11347;52.030;4.690;2022-07-25T14:10:09;26.60;41.50
22360;DHT22;11347;52.030;4.690;2022-07-25T14:12:36;26.60;41.50
22360;DHT22;11347;52.030;4.690;2022-07-25T14:15:04;26.60;41.60
22360;DHT22;11347;52.030;4.690;2022-07-25T14:17:31;26.60;41.60
22360;DHT22;11347;52.030;4.690;2022-07-25T14:19:57;26.60;41.80
22360;DHT22;11347;52.030;4.690;2022-07-25T14:22:22;26.60;41.70
22360;DHT22;11347;52.030;4.690;2022-07-25T14:24:48;26.60;41.40
22360;DHT22;11347;52.030;4.690;2022-07-25T14:27:13;26.60;41.30
22360;DHT22;11347;52.030;4.690;2022-07-25T14:29:39;26.60;41.40
22360;DHT22;11347;52.030;4.690;2022-07-25T14:32:05;26.60;41.40
22360;DHT22;11347;52.030;4.690;2022-07-25T14:34:35;26.60;41.20
22360;DHT22;11347;52.030;4.690;2022-07-25T14:37:03;26.70;41.20
22360;DHT22;11347;52.030;4.690;2022-07-25T14:39:29;26.70;41.20
22360;DHT22;11347;52.030;4.690;2022-07-25T14:41:55;26.70;41.00
22360;DHT22;11347;52.030;4.690;2022-07-25T14:44:21;26.70;40.90
22360;DHT22;11347;52.030;4.690;2022-07-25T14:46:46;26.70;40.80
22360;DHT22;11347;52.030;4.690;2022-07-25T14:49:14;26.70;40.50
22360;DHT22;11347;52.030;4.690;2022-07-25T14:51:41;26.70;40.70
22360;DHT22;11347;52.030;4.690;2022-07-25T14:54:09;26.70;40.60
22360;DHT22;11347;52.030;4.690;2022-07-25T14:56:35;26.70;40.50
22360;DHT22;11347;52.030;4.690;2022-07-25T14:59:02;26.70;40.60
22360;DHT22;11347;52.030;4.690;2022-07-25T15:01:28;26.70;40.70
22360;DHT22;11347;52.030;4.690;2022-07-25T15:03:54;26.70;40.70
22360;DHT22;11347;52.030;4.690;2022-07-25T15:06:22;26.70;40.60
22360;DHT22;11347;52.030;4.690;2022-07-25T15:08:49;26.70;40.80
22360;DHT22;11347;52.030;4.690;2022-07-25T15:11:18;26.70;40.80
22360;DHT22;11347;52.030;4.690;2022-07-25T15:13:44;26.70;40.50
22360;DHT22;11347;52.030;4.690;2022-07-25T15:16:11;26.70;40.60
22360;DHT22;11347;52.030;4.690;2022-07-25T15:18:36;26.70;41.10
22360;DHT22;11347;52.030;4.690;2022-07-25T15:21:02;26.80;40.40
22360;DHT22;11347;52.030;4.690;2022-07-25T15:23:28;26.70;40.30
22360;DHT22;11347;52.030;4.690;2022-07-25T15:25:54;26.70;40.20
22360;DHT22;11347;52.030;4.690;2022-07-25T15:28:20;26.70;40.20
22360;DHT22;11347;52.030;4.690;2022-07-25T15:30:46;26.70;41.00
22360;DHT22;11347;52.030;4.690;2022-07-25T15:33:16;26.70;40.30
22360;DHT22;11347;52.030;4.690;2022-07-25T15:35:43;26.70;40.60
22360;DHT22;11347;52.030;4.690;2022-07-25T15:38:10;26.70;40.60
22360;DHT22;11347;52.030;4.690;2022-07-25T15:40:36;26.70;40.60
22360;DHT22;11347;52.030;4.690;2022-07-25T15:43:01;26.70;40.60